Time,TemperatureF,DewpointF,PressureIn,WindDirection,WindDirectionDegrees,WindSpeedMPH,WindSpeedGustMPH,Humidity,HourlyPrecipIn,Conditions,Clouds,dailyrainin,SoftwareType,DateUTC
2013-04-20 00:11:00,51.8,50.0,29.76,North,352,1.0,6.0,93,0.24,,,0.02,weatherlink.com 1.10,2013-04-20 04:11:00,
2013-04-20 00:26:00,50.9,48.0,29.76,West,271,2.0,12.0,91,0.20,,,0.05,weatherlink.com 1.10,2013-04-20 04:26:00,
2013-04-20 00:41:00,50.7,49.0,29.77,West,278,0.0,5.0,92,0.16,,,0.08,weatherlink.com 1.10,2013-04-20 04:41:00,
2013-04-20 00:56:00,50.5,49.0,29.78,WNW,297,1.0,6.0,93,0.10,,,0.09,weatherlink.com 1.10,2013-04-20 04:56:00,
2013-04-20 01:11:00,50.6,49.0,29.80,WNW,301,2.0,5.0,93,0.08,,,0.10,weatherlink.com 1.10,2013-04-20 05:11:00,
2013-04-20 01:26:00,50.5,49.0,29.81,WSW,256,0.0,3.0,94,0.07,,,0.12,weatherlink.com 1.10,2013-04-20 05:26:00,
2013-04-20 01:41:00,50.4,49.0,29.80,WNW,291,2.0,5.0,94,0.05,,,0.13,weatherlink.com 1.10,2013-04-20 05:41:00,
2013-04-20 01:56:00,50.5,49.0,29.80,WNW,288,1.0,2.0,95,0.04,,,0.13,weatherlink.com 1.10,2013-04-20 05:56:00,
2013-04-20 02:10:00,50.6,49.0,29.81,NW,315,0.0,2.0,95,0.05,,,0.15,weatherlink.com 1.10,2013-04-20 06:10:00,
2013-04-20 02:25:00,50.7,49.0,29.80,ENE,58,0.0,3.0,95,0.03,,,0.15,weatherlink.com 1.10,2013-04-20 06:25:00,
2013-04-20 02:40:00,50.8,49.0,29.80,NE,47,1.0,6.0,94,0.02,,,0.15,weatherlink.com 1.10,2013-04-20 06:40:00,
2013-04-20 02:55:00,50.9,49.0,29.81,West,273,0.0,3.0,94,0.02,,,0.15,weatherlink.com 1.10,2013-04-20 06:55:00,
2013-04-20 03:11:00,50.7,49.0,29.82,WSW,256,0.0,3.0,93,0.00,,,0.15,weatherlink.com 1.10,2013-04-20 07:11:00,
2013-04-20 03:26:00,51.0,49.0,29.84,SW,217,0.0,1.0,94,0.00,,,0.15,weatherlink.com 1.10,2013-04-20 07:26:00,
2013-04-20 03:41:00,50.8,49.0,29.85,SW,218,0.0,0.0,94,0.00,,,0.15,weatherlink.com 1.10,2013-04-20 07:41:00,
2013-04-20 03:56:00,50.7,49.0,29.86,WSW,243,0.0,0.0,94,0.00,,,0.15,weatherlink.com 1.10,2013-04-20 07:56:00,
2013-04-20 04:11:00,50.5,49.0,29.86,West,281,0.0,0.0,94,0.00,,,0.15,weatherlink.com 1.10,2013-04-20 08:11:00,
2013-04-20 04:26:00,50.3,47.0,29.87,WNW,289,5.0,5.0,87,0.01,,,0.16,weatherlink.com 1.10,2013-04-20 08:26:00,
2013-04-20 04:41:00,50.3,45.0,29.88,NNE,25,0.0,8.0,83,0.01,,,0.16,weatherlink.com 1.10,2013-04-20 08:41:00,
2013-04-20 04:56:00,50.3,43.0,29.88,WNW,294,3.0,11.0,75,0.01,,,0.16,weatherlink.com 1.10,2013-04-20 08:56:00,
2013-04-20 05:11:00,50.4,41.0,29.89,WNW,284,7.0,11.0,69,0.01,,,0.16,weatherlink.com 1.10,2013-04-20 09:11:00,
2013-04-20 05:26:00,50.4,40.0,29.90,WNW,294,4.0,6.0,68,0.00,,,0.16,weatherlink.com 1.10,2013-04-20 09:26:00,
2013-04-20 05:41:00,50.3,38.0,29.92,WSW,249,3.0,10.0,64,0.00,,,0.16,weatherlink.com 1.10,2013-04-20 09:41:00,
2013-04-20 05:56:00,49.9,39.0,29.93,WNW,283,8.0,10.0,67,0.00,,,0.16,weatherlink.com 1.10,2013-04-20 09:56:00,
2013-04-20 06:11:00,50.0,37.0,29.93,WNW,291,5.0,11.0,61,0.00,,,0.16,weatherlink.com 1.10,2013-04-20 10:11:00,
2013-04-20 06:26:00,49.9,38.0,29.93,WSW,245,0.0,6.0,65,0.00,,,0.16,weatherlink.com 1.10,2013-04-20 10:26:00,
2013-04-20 06:41:00,49.5,37.0,29.94,WNW,298,1.0,10.0,63,0.00,,,0.16,weatherlink.com 1.10,2013-04-20 10:41:00,
2013-04-20 06:56:00,49.2,37.0,29.95,WNW,285,0.0,6.0,63,0.00,,,0.16,weatherlink.com 1.10,2013-04-20 10:56:00,
2013-04-20 07:11:00,49.2,37.0,29.97,West,274,1.0,5.0,64,0.00,,,0.16,weatherlink.com 1.10,2013-04-20 11:11:00,
2013-04-20 07:26:00,49.0,39.0,29.98,West,274,1.0,4.0,69,0.00,,,0.16,weatherlink.com 1.10,2013-04-20 11:26:00,
2013-04-20 07:41:00,49.1,36.0,29.98,WNW,293,6.0,9.0,61,0.00,,,0.16,weatherlink.com 1.10,2013-04-20 11:41:00,
2013-04-20 07:56:00,49.6,34.0,29.99,WNW,289,2.0,14.0,55,0.00,,,0.16,weatherlink.com 1.10,2013-04-20 11:56:00,
2013-04-20 08:11:00,49.4,32.0,30.00,West,276,4.0,15.0,52,0.00,,,0.16,weatherlink.com 1.10,2013-04-20 12:11:00,
2013-04-20 08:26:00,49.3,33.0,30.01,WNW,283,0.0,11.0,53,0.00,,,0.16,weatherlink.com 1.10,2013-04-20 12:26:00,
2013-04-20 08:41:00,48.9,31.0,30.02,NE,56,1.0,9.0,51,0.00,,,0.16,weatherlink.com 1.10,2013-04-20 12:41:00,
2013-04-20 08:57:00,48.7,32.0,30.02,SW,219,2.0,7.0,52,0.00,,,0.16,weatherlink.com 1.10,2013-04-20 12:57:00,
2013-04-20 09:12:00,48.5,30.0,30.04,WNW,289,4.0,12.0,49,0.00,,,0.16,weatherlink.com 1.10,2013-04-20 13:12:00,
2013-04-20 09:27:00,48.5,31.0,30.04,West,276,3.0,8.0,51,0.00,,,0.16,weatherlink.com 1.10,2013-04-20 13:27:00,
2013-04-20 09:42:00,48.4,31.0,30.05,WSW,240,2.0,12.0,51,0.00,,,0.16,weatherlink.com 1.10,2013-04-20 13:42:00,
2013-04-20 09:57:00,48.3,30.0,30.06,NNW,327,2.0,11.0,50,0.00,,,0.16,weatherlink.com 1.10,2013-04-20 13:57:00,
2013-04-20 10:12:00,48.5,30.0,30.07,West,276,4.0,17.0,50,0.00,,,0.16,weatherlink.com 1.10,2013-04-20 14:12:00,
2013-04-20 10:27:00,49.6,32.0,30.07,WNW,290,5.0,9.0,51,0.00,,,0.16,weatherlink.com 1.10,2013-04-20 14:27:00,
2013-04-20 10:42:00,50.7,31.0,30.07,North,360,2.0,12.0,48,0.00,,,0.16,weatherlink.com 1.10,2013-04-20 14:42:00,
2013-04-20 10:57:00,50.9,32.0,30.07,North,352,2.0,14.0,48,0.00,,,0.16,weatherlink.com 1.10,2013-04-20 14:57:00,
2013-04-20 11:12:00,52.5,33.0,30.08,WNW,288,3.0,10.0,47,0.00,,,0.16,weatherlink.com 1.10,2013-04-20 15:12:00,
2013-04-20 11:27:00,54.3,33.0,30.08,WNW,291,3.0,11.0,45,0.00,,,0.16,weatherlink.com 1.10,2013-04-20 15:27:00,
2013-04-20 11:42:00,54.6,33.0,30.08,SSW,211,2.0,13.0,44,0.00,,,0.16,weatherlink.com 1.10,2013-04-20 15:42:00,
2013-04-20 11:57:00,55.0,33.0,30.08,WNW,283,10.0,13.0,43,0.00,,,0.16,weatherlink.com 1.10,2013-04-20 15:57:00,
2013-04-20 12:12:00,55.5,32.0,30.07,WNW,297,1.0,12.0,41,0.00,,,0.16,weatherlink.com 1.10,2013-04-20 16:12:00,
2013-04-20 12:27:00,57.3,36.0,30.07,North,9,5.0,12.0,45,0.00,,,0.16,weatherlink.com 1.10,2013-04-20 16:27:00,
2013-04-20 12:42:00,56.9,35.0,30.06,WSW,243,7.0,9.0,44,0.00,,,0.16,weatherlink.com 1.10,2013-04-20 16:42:00,
2013-04-20 12:57:00,57.9,35.0,30.06,WNW,286,4.0,12.0,43,0.00,,,0.16,weatherlink.com 1.10,2013-04-20 16:57:00,
2013-04-20 13:12:00,58.7,36.0,30.05,WSW,248,5.0,11.0,43,0.00,,,0.16,weatherlink.com 1.10,2013-04-20 17:12:00,
2013-04-20 13:27:00,58.8,34.0,30.05,WNW,290,2.0,11.0,39,0.00,,,0.16,weatherlink.com 1.10,2013-04-20 17:27:00,
2013-04-20 13:42:00,59.2,31.0,30.05,WNW,293,2.0,13.0,35,0.00,,,0.16,weatherlink.com 1.10,2013-04-20 17:42:00,
2013-04-20 13:57:00,60.1,34.0,30.06,WNW,287,2.0,10.0,38,0.00,,,0.16,weatherlink.com 1.10,2013-04-20 17:57:00,
2013-04-20 14:12:00,60.1,35.0,30.05,WSW,249,0.0,11.0,39,0.00,,,0.16,weatherlink.com 1.10,2013-04-20 18:12:00,
2013-04-20 14:27:00,60.1,32.0,30.05,NW,304,7.0,16.0,35,0.00,,,0.16,weatherlink.com 1.10,2013-04-20 18:27:00,
2013-04-20 14:42:00,59.9,33.0,30.05,WNW,287,7.0,10.0,37,0.00,,,0.16,weatherlink.com 1.10,2013-04-20 18:42:00,
2013-04-20 14:57:00,60.9,34.0,30.06,NW,305,2.0,8.0,36,0.00,,,0.16,weatherlink.com 1.10,2013-04-20 18:57:00,
2013-04-20 15:12:00,60.6,32.0,30.06,ENE,68,2.0,14.0,34,0.00,,,0.16,weatherlink.com 1.10,2013-04-20 19:12:00,
2013-04-20 15:27:00,61.0,32.0,30.07,West,262,3.0,14.0,34,0.00,,,0.16,weatherlink.com 1.10,2013-04-20 19:27:00,
2013-04-20 15:42:00,61.7,34.0,30.06,SSW,212,3.0,8.0,35,0.00,,,0.16,weatherlink.com 1.10,2013-04-20 19:42:00,
2013-04-20 15:57:00,60.9,33.0,30.07,NW,316,2.0,10.0,35,0.00,,,0.16,weatherlink.com 1.10,2013-04-20 19:57:00,
2013-04-20 16:12:00,61.7,31.0,30.07,West,274,3.0,12.0,31,0.00,,,0.16,weatherlink.com 1.10,2013-04-20 20:12:00,
2013-04-20 16:27:00,61.7,33.0,30.07,NE,34,7.0,10.0,34,0.00,,,0.16,weatherlink.com 1.10,2013-04-20 20:27:00,
2013-04-20 16:42:00,61.4,33.0,30.08,West,260,5.0,9.0,34,0.00,,,0.16,weatherlink.com 1.10,2013-04-20 20:42:00,
2013-04-20 16:57:00,61.1,32.0,30.09,NNW,330,0.0,8.0,33,0.00,,,0.16,weatherlink.com 1.10,2013-04-20 20:57:00,
2013-04-20 17:12:00,60.6,31.0,30.09,WNW,288,10.0,10.0,33,0.00,,,0.16,weatherlink.com 1.10,2013-04-20 21:12:00,
2013-04-20 17:28:00,61.1,32.0,30.09,WNW,295,3.0,9.0,33,0.00,,,0.16,weatherlink.com 1.10,2013-04-20 21:28:00,
2013-04-20 17:43:00,60.1,32.0,30.10,ENE,75,2.0,8.0,35,0.00,,,0.16,weatherlink.com 1.10,2013-04-20 21:43:00,
2013-04-20 17:58:00,59.8,32.0,30.11,WNW,288,8.0,13.0,35,0.00,,,0.16,weatherlink.com 1.10,2013-04-20 21:58:00,
2013-04-20 18:13:00,59.3,30.0,30.12,WSW,250,3.0,12.0,33,0.00,,,0.16,weatherlink.com 1.10,2013-04-20 22:13:00,
2013-04-20 18:28:00,59.0,32.0,30.12,WNW,300,1.0,7.0,36,0.00,,,0.16,weatherlink.com 1.10,2013-04-20 22:28:00,
2013-04-20 18:43:00,58.5,31.0,30.13,West,278,1.0,7.0,36,0.00,,,0.16,weatherlink.com 1.10,2013-04-20 22:43:00,
2013-04-20 18:58:00,58.0,30.0,30.14,WSW,242,4.0,9.0,34,0.00,,,0.16,weatherlink.com 1.10,2013-04-20 22:58:00,
2013-04-20 19:13:00,57.6,31.0,30.14,NW,312,2.0,4.0,36,0.00,,,0.16,weatherlink.com 1.10,2013-04-20 23:13:00,
2013-04-20 19:28:00,57.0,30.0,30.15,WNW,290,3.0,7.0,36,0.00,,,0.16,weatherlink.com 1.10,2013-04-20 23:28:00,
2013-04-20 19:43:00,56.5,30.0,30.16,NNE,30,1.0,3.0,37,0.00,,,0.16,weatherlink.com 1.10,2013-04-20 23:43:00,
2013-04-20 19:58:00,55.7,32.0,30.18,West,275,1.0,4.0,40,0.00,,,0.16,weatherlink.com 1.10,2013-04-20 23:58:00,
2013-04-20 20:13:00,54.2,34.0,30.18,WSW,252,0.0,1.0,47,0.00,,,0.16,weatherlink.com 1.10,2013-04-21 00:13:00,
2013-04-20 20:28:00,53.2,34.0,30.20,North,355,0.0,0.0,48,0.00,,,0.16,weatherlink.com 1.10,2013-04-21 00:28:00,
2013-04-20 20:43:00,52.4,38.0,30.21,West,276,0.0,1.0,59,0.00,,,0.16,weatherlink.com 1.10,2013-04-21 00:43:00,
2013-04-20 20:58:00,51.0,36.0,30.22,West,276,0.0,1.0,58,0.00,,,0.16,weatherlink.com 1.10,2013-04-21 00:58:00,
2013-04-20 21:13:00,50.6,37.0,30.23,WSW,255,0.0,1.0,59,0.00,,,0.16,weatherlink.com 1.10,2013-04-21 01:13:00,
2013-04-20 21:28:00,51.7,35.0,30.24,WSW,239,0.0,4.0,53,0.00,,,0.16,weatherlink.com 1.10,2013-04-21 01:28:00,
2013-04-20 21:43:00,52.9,34.0,30.25,NNE,23,1.0,5.0,49,0.00,,,0.16,weatherlink.com 1.10,2013-04-21 01:43:00,
2013-04-20 21:58:00,52.9,34.0,30.26,SE,125,0.0,4.0,49,0.00,,,0.16,weatherlink.com 1.10,2013-04-21 01:58:00,
2013-04-20 22:13:00,52.4,35.0,30.27,WNW,297,0.0,2.0,51,0.00,,,0.16,weatherlink.com 1.10,2013-04-21 02:13:00,
2013-04-20 22:28:00,51.9,34.0,30.28,NE,46,1.0,6.0,50,0.00,,,0.16,weatherlink.com 1.10,2013-04-21 02:28:00,
2013-04-20 22:43:00,51.4,33.0,30.28,NE,41,1.0,6.0,50,0.00,,,0.16,weatherlink.com 1.10,2013-04-21 02:43:00,
2013-04-20 22:58:00,51.0,34.0,30.29,NNE,25,0.0,4.0,52,0.00,,,0.16,weatherlink.com 1.10,2013-04-21 02:58:00,
2013-04-20 23:13:00,50.2,35.0,30.30,NW,311,0.0,2.0,56,0.00,,,0.16,weatherlink.com 1.10,2013-04-21 03:13:00,
2013-04-20 23:28:00,50.1,33.0,30.29,NE,43,1.0,3.0,52,0.00,,,0.16,weatherlink.com 1.10,2013-04-21 03:28:00,
2013-04-20 23:43:00,50.0,33.0,30.30,NNW,346,0.0,5.0,52,0.00,,,0.16,weatherlink.com 1.10,2013-04-21 03:43:00,
2013-04-20 23:58:00,49.9,33.0,30.31,WNW,285,2.0,4.0,53,0.00,,,0.16,weatherlink.com 1.10,2013-04-21 03:58:00,